6VA5 weather

Heronwood Heliport
Upperville, Virginia, United States

Public forecast

Using degrees Fahrenheit for public forecast. Weather courtesy of forecast.io.

Closest aviation weather report (METAR) to Heronwood Heliport

Closest report is Leesburg Executive Airport, 15.4 nm (28.5 km) ENE. Retrieved 2020/06/04 03:55 UTC (8 minutes ago):

KJYO 040355Z AUTO 27005KT 10SM CLR 26/17 A2982 RMK AO2

Closest aviation forecast (TAF) to Heronwood Heliport

Closest forecast is Washington Dulles International Airport, 18.9 nm (34.9 km) E. Retrieved 2020-06-04 00:30 UTC (4 hours ago):

TAF KIAD 032327Z 0400/0506 27010G18KT P6SM BKN130 FM040100 27008KT P6SM BKN130 FM040900 VRB03KT P6SM BKN130 FM041600 18008KT P6SM SCT050 BKN130 FM041900 18008G16KT P6SM VCTS SCT050CB BKN130 FM042300 19008KT P6SM SCT050 BKN130